Reportes METAR Cercanos

 

LEMD - Madrid/Barajas, Spain
Distance from station: N 10km
Updated: 15/08/2018 22:00
Despejado
Despejado
 Viento del NNO
Viento: NNO 7 km/h
Temperatura: 28°C
Rocío: 10°C
Humedad: 32%
Barómetro: 1015 hPa
Resumen: Despejado
Visibility: greater than 10 km
2018/08/15 22:00 LEMD 152200Z 34004KT CAVOK 28/10 Q1015 NOSIG
LETO - Torrejon (usafb), Spain
Distance from station: NNE 13km
Updated: 15/08/2018 22:00
Despejado
Despejado
 Viento del varies
Viento: varies 4 km/h
Temperatura: 27°C
Rocío: 8°C
Humedad: 30%
Barómetro: 1016 hPa
Resumen: Despejado
Visibility: greater than 10 km
2018/08/15 22:00 LETO 152200Z VRB02KT CAVOK 27/08 Q1016 NOSIG
 
LEGT - Madrid/Getafe (a, Spain
Distance from station: OSO 18km
Updated: 15/08/2018 18:00
NOT Current
Despejado
Despejado
 Viento del O
Viento: O 9 km/h
Temperatura: 34°C
Rocío: 6°C
Humedad: 17%
Barómetro: 1015 hPa
Resumen: Despejado
Visibility: greater than 10 km
2018/08/15 18:00 LEGT 151800Z 27005KT 210V300 CAVOK 34/06 Q1015
LEVS - Madrid/Cuatro Vi, Spain
Distance from station: O 20km
Updated: 15/08/2018 20:00
NOT Current
Despejado
Despejado
 Viento del OSO
Viento: OSO 4 km/h
Temperatura: 27°C
Rocío: 5°C
Humedad: 24%
Barómetro: 1016 hPa
Resumen: Despejado
Visibility: greater than 10 km
2018/08/15 20:00 LEVS 152000Z 24002KT CAVOK 27/05 Q1016
 
LECV - Madri-Colmenar, Spain
Distance from station: NNO 34km
Updated: 15/08/2018 18:00
NOT Current
Poco nuboso
Poco nuboso
 Viento del varies
Viento: varies 4 km/h
Temperatura: 30°C
Rocío: 5°C
Humedad: 20%
Barómetro: 1017 hPa
Clouds: Poco nuboso
Visibility: 10 km
Cloud details: Poco nuboso 1219 m
2018/08/15 18:00 LECV 151800Z VRB02KT 9999 FEW040 30/05 Q1017